sensor_id;sensor_type;location;lat;lon;timestamp;P1;durP1;ratioP1;P2;durP2;ratioP2
61756;SDS011;57225;61.460;24.060;2022-09-09T00:00:28;6.78;;;3.80;;
61756;SDS011;57225;61.460;24.060;2022-09-09T00:03:18;5.88;;;3.90;;
61756;SDS011;57225;61.460;24.060;2022-09-09T00:06:12;7.97;;;4.55;;
61756;SDS011;57225;61.460;24.060;2022-09-09T00:12:04;8.63;;;4.43;;
61756;SDS011;57225;61.460;24.060;2022-09-09T00:15:13;8.80;;;4.55;;
61756;SDS011;57225;61.460;24.060;2022-09-09T00:21:14;7.75;;;4.72;;
61756;SDS011;57225;61.460;24.060;2022-09-09T00:23:59;8.20;;;4.45;;
61756;SDS011;57225;61.460;24.060;2022-09-09T00:26:47;8.48;;;5.00;;
61756;SDS011;57225;61.460;24.060;2022-09-09T00:29:41;9.93;;;5.20;;
61756;SDS011;57225;61.460;24.060;2022-09-09T00:32:29;8.77;;;4.95;;
61756;SDS011;57225;61.460;24.060;2022-09-09T00:35:29;10.52;;;5.30;;
61756;SDS011;57225;61.460;24.060;2022-09-09T00:38:40;7.60;;;4.95;;
61756;SDS011;57225;61.460;24.060;2022-09-09T00:44:39;9.25;;;4.60;;
61756;SDS011;57225;61.460;24.060;2022-09-09T00:47:38;7.40;;;4.20;;
61756;SDS011;57225;61.460;24.060;2022-09-09T00:50:52;7.20;;;4.22;;
61756;SDS011;57225;61.460;24.060;2022-09-09T00:56:58;8.15;;;4.25;;
61756;SDS011;57225;61.460;24.060;2022-09-09T01:02:45;7.05;;;3.90;;
61756;SDS011;57225;61.460;24.060;2022-09-09T01:06:11;8.43;;;4.13;;
61756;SDS011;57225;61.460;24.060;2022-09-09T01:12:15;6.22;;;4.00;;
61756;SDS011;57225;61.460;24.060;2022-09-09T01:15:03;9.60;;;4.22;;
61756;SDS011;57225;61.460;24.060;2022-09-09T01:18:00;8.25;;;4.13;;
61756;SDS011;57225;61.460;24.060;2022-09-09T01:26:53;8.15;;;4.07;;
61756;SDS011;57225;61.460;24.060;2022-09-09T01:29:42;10.48;;;3.83;;
61756;SDS011;57225;61.460;24.060;2022-09-09T01:35:45;5.07;;;3.10;;
61756;SDS011;57225;61.460;24.060;2022-09-09T01:38:51;6.20;;;3.58;;
61756;SDS011;57225;61.460;24.060;2022-09-09T01:41:37;8.13;;;4.00;;
61756;SDS011;57225;61.460;24.060;2022-09-09T01:44:21;5.60;;;3.50;;
61756;SDS011;57225;61.460;24.060;2022-09-09T01:47:07;7.25;;;3.08;;
61756;SDS011;57225;61.460;24.060;2022-09-09T01:49:51;5.05;;;3.17;;
61756;SDS011;57225;61.460;24.060;2022-09-09T01:52:35;6.45;;;3.20;;
61756;SDS011;57225;61.460;24.060;2022-09-09T01:58:37;6.22;;;2.70;;
61756;SDS011;57225;61.460;24.060;2022-09-09T02:01:45;7.38;;;3.78;;
61756;SDS011;57225;61.460;24.060;2022-09-09T02:04:38;6.47;;;3.28;;
61756;SDS011;57225;61.460;24.060;2022-09-09T02:10:31;5.33;;;3.90;;
61756;SDS011;57225;61.460;24.060;2022-09-09T02:13:21;4.18;;;2.75;;
61756;SDS011;57225;61.460;24.060;2022-09-09T02:16:15;3.75;;;2.55;;
61756;SDS011;57225;61.460;24.060;2022-09-09T02:19:27;4.25;;;2.65;;
61756;SDS011;57225;61.460;24.060;2022-09-09T02:22:17;4.13;;;2.60;;
61756;SDS011;57225;61.460;24.060;2022-09-09T02:25:06;4.60;;;2.80;;
61756;SDS011;57225;61.460;24.060;2022-09-09T02:27:53;7.38;;;3.15;;
61756;SDS011;57225;61.460;24.060;2022-09-09T02:30:38;4.28;;;2.95;;
61756;SDS011;57225;61.460;24.060;2022-09-09T02:33:25;4.35;;;2.75;;
61756;SDS011;57225;61.460;24.060;2022-09-09T02:36:14;4.03;;;2.33;;
61756;SDS011;57225;61.460;24.060;2022-09-09T02:38:59;6.53;;;3.17;;
61756;SDS011;57225;61.460;24.060;2022-09-09T02:41:44;6.32;;;2.67;;
61756;SDS011;57225;61.460;24.060;2022-09-09T02:44:29;8.88;;;4.95;;
61756;SDS011;57225;61.460;24.060;2022-09-09T02:53:23;4.55;;;3.38;;
61756;SDS011;57225;61.460;24.060;2022-09-09T02:56:17;4.07;;;2.53;;
61756;SDS011;57225;61.460;24.060;2022-09-09T03:01:49;3.10;;;2.25;;
61756;SDS011;57225;61.460;24.060;2022-09-09T03:04:34;10.10;;;3.22;;
61756;SDS011;57225;61.460;24.060;2022-09-09T03:07:18;5.22;;;2.90;;
61756;SDS011;57225;61.460;24.060;2022-09-09T03:10:03;8.93;;;3.20;;
61756;SDS011;57225;61.460;24.060;2022-09-09T03:12:48;7.13;;;3.65;;
61756;SDS011;57225;61.460;24.060;2022-09-09T03:15:34;6.25;;;3.47;;
61756;SDS011;57225;61.460;24.060;2022-09-09T03:18:18;10.73;;;3.40;;
61756;SDS011;57225;61.460;24.060;2022-09-09T03:21:03;5.50;;;3.10;;
61756;SDS011;57225;61.460;24.060;2022-09-09T03:23:47;5.72;;;2.88;;
61756;SDS011;57225;61.460;24.060;2022-09-09T03:26:32;5.13;;;3.28;;
61756;SDS011;57225;61.460;24.060;2022-09-09T03:29:17;6.40;;;3.33;;
61756;SDS011;57225;61.460;24.060;2022-09-09T03:32:02;4.80;;;3.10;;
61756;SDS011;57225;61.460;24.060;2022-09-09T03:34:46;5.15;;;2.90;;
61756;SDS011;57225;61.460;24.060;2022-09-09T03:37:31;6.70;;;2.85;;
61756;SDS011;57225;61.460;24.060;2022-09-09T03:40:17;5.82;;;2.65;;
61756;SDS011;57225;61.460;24.060;2022-09-09T03:43:03;7.80;;;3.55;;
61756;SDS011;57225;61.460;24.060;2022-09-09T03:45:47;8.15;;;3.13;;
61756;SDS011;57225;61.460;24.060;2022-09-09T03:48:31;8.38;;;2.95;;
61756;SDS011;57225;61.460;24.060;2022-09-09T03:51:16;5.38;;;2.67;;
61756;SDS011;57225;61.460;24.060;2022-09-09T03:54:00;6.90;;;2.85;;
61756;SDS011;57225;61.460;24.060;2022-09-09T03:56:45;5.07;;;2.72;;
61756;SDS011;57225;61.460;24.060;2022-09-09T03:59:29;9.63;;;3.47;;
61756;SDS011;57225;61.460;24.060;2022-09-09T04:02:13;9.50;;;3.85;;
61756;SDS011;57225;61.460;24.060;2022-09-09T04:04:59;6.97;;;3.20;;
61756;SDS011;57225;61.460;24.060;2022-09-09T04:07:43;7.13;;;3.85;;
61756;SDS011;57225;61.460;24.060;2022-09-09T04:10:28;6.65;;;3.65;;
61756;SDS011;57225;61.460;24.060;2022-09-09T04:13:14;8.38;;;3.75;;
61756;SDS011;57225;61.460;24.060;2022-09-09T04:16:01;6.88;;;3.60;;
61756;SDS011;57225;61.460;24.060;2022-09-09T04:18:47;7.90;;;4.10;;
61756;SDS011;57225;61.460;24.060;2022-09-09T04:21:32;12.52;;;4.60;;
61756;SDS011;57225;61.460;24.060;2022-09-09T04:24:16;5.97;;;3.47;;
61756;SDS011;57225;61.460;24.060;2022-09-09T04:27:01;5.65;;;3.10;;
61756;SDS011;57225;61.460;24.060;2022-09-09T04:29:45;6.97;;;3.72;;
61756;SDS011;57225;61.460;24.060;2022-09-09T04:32:31;5.53;;;3.55;;
61756;SDS011;57225;61.460;24.060;2022-09-09T04:35:16;4.47;;;3.13;;
61756;SDS011;57225;61.460;24.060;2022-09-09T04:38:01;12.52;;;3.92;;
61756;SDS011;57225;61.460;24.060;2022-09-09T04:40:49;7.57;;;3.75;;
61756;SDS011;57225;61.460;24.060;2022-09-09T04:43:35;8.18;;;3.63;;
61756;SDS011;57225;61.460;24.060;2022-09-09T04:46:21;6.45;;;3.00;;
61756;SDS011;57225;61.460;24.060;2022-09-09T04:49:06;7.85;;;3.50;;
61756;SDS011;57225;61.460;24.060;2022-09-09T04:51:50;12.60;;;4.40;;
61756;SDS011;57225;61.460;24.060;2022-09-09T04:54:39;10.73;;;3.78;;
61756;SDS011;57225;61.460;24.060;2022-09-09T04:57:24;6.65;;;3.35;;
61756;SDS011;57225;61.460;24.060;2022-09-09T05:00:08;5.30;;;3.47;;
61756;SDS011;57225;61.460;24.060;2022-09-09T05:02:54;9.23;;;3.67;;
61756;SDS011;57225;61.460;24.060;2022-09-09T05:05:38;9.68;;;3.40;;
61756;SDS011;57225;61.460;24.060;2022-09-09T05:08:23;4.07;;;3.15;;
61756;SDS011;57225;61.460;24.060;2022-09-09T05:11:17;5.15;;;3.25;;
61756;SDS011;57225;61.460;24.060;2022-09-09T05:14:03;4.82;;;3.15;;
61756;SDS011;57225;61.460;24.060;2022-09-09T05:16:48;6.03;;;3.67;;
61756;SDS011;57225;61.460;24.060;2022-09-09T05:19:33;10.18;;;4.47;;
61756;SDS011;57225;61.460;24.060;2022-09-09T05:22:18;7.47;;;3.55;;
61756;SDS011;57225;61.460;24.060;2022-09-09T05:25:04;11.15;;;4.18;;
61756;SDS011;57225;61.460;24.060;2022-09-09T05:27:48;5.05;;;3.40;;
61756;SDS011;57225;61.460;24.060;2022-09-09T05:30:33;8.20;;;3.35;;
61756;SDS011;57225;61.460;24.060;2022-09-09T05:33:18;5.45;;;3.40;;
61756;SDS011;57225;61.460;24.060;2022-09-09T05:36:09;9.02;;;3.65;;
61756;SDS011;57225;61.460;24.060;2022-09-09T05:38:58;5.47;;;3.38;;
61756;SDS011;57225;61.460;24.060;2022-09-09T05:41:43;7.18;;;3.72;;
61756;SDS011;57225;61.460;24.060;2022-09-09T05:44:28;6.07;;;3.58;;
61756;SDS011;57225;61.460;24.060;2022-09-09T05:47:12;8.73;;;4.00;;
61756;SDS011;57225;61.460;24.060;2022-09-09T05:49:57;6.65;;;3.80;;
61756;SDS011;57225;61.460;24.060;2022-09-09T05:52:41;7.05;;;3.65;;
61756;SDS011;57225;61.460;24.060;2022-09-09T05:55:27;7.60;;;3.60;;
61756;SDS011;57225;61.460;24.060;2022-09-09T05:58:11;6.43;;;3.95;;
61756;SDS011;57225;61.460;24.060;2022-09-09T06:01:03;8.10;;;3.80;;
61756;SDS011;57225;61.460;24.060;2022-09-09T06:03:49;5.47;;;3.78;;
61756;SDS011;57225;61.460;24.060;2022-09-09T06:06:35;8.75;;;4.47;;
61756;SDS011;57225;61.460;24.060;2022-09-09T06:09:20;5.97;;;3.65;;
61756;SDS011;57225;61.460;24.060;2022-09-09T06:12:05;8.82;;;3.88;;
61756;SDS011;57225;61.460;24.060;2022-09-09T06:14:49;10.57;;;3.83;;
61756;SDS011;57225;61.460;24.060;2022-09-09T06:17:35;8.25;;;3.65;;
61756;SDS011;57225;61.460;24.060;2022-09-09T06:20:20;8.48;;;3.47;;
61756;SDS011;57225;61.460;24.060;2022-09-09T06:23:05;5.80;;;3.33;;
61756;SDS011;57225;61.460;24.060;2022-09-09T06:25:50;8.23;;;3.35;;
61756;SDS011;57225;61.460;24.060;2022-09-09T06:28:34;5.97;;;3.40;;
61756;SDS011;57225;61.460;24.060;2022-09-09T06:31:20;6.50;;;3.10;;
61756;SDS011;57225;61.460;24.060;2022-09-09T06:34:06;5.07;;;2.67;;
61756;SDS011;57225;61.460;24.060;2022-09-09T06:36:51;6.00;;;2.78;;
61756;SDS011;57225;61.460;24.060;2022-09-09T06:39:36;5.43;;;2.85;;
61756;SDS011;57225;61.460;24.060;2022-09-09T06:42:20;6.13;;;3.17;;
61756;SDS011;57225;61.460;24.060;2022-09-09T06:45:05;4.07;;;2.72;;
61756;SDS011;57225;61.460;24.060;2022-09-09T06:47:50;5.22;;;2.45;;
61756;SDS011;57225;61.460;24.060;2022-09-09T06:50:38;3.80;;;2.00;;
61756;SDS011;57225;61.460;24.060;2022-09-09T06:53:22;4.65;;;2.60;;
61756;SDS011;57225;61.460;24.060;2022-09-09T06:58:55;3.58;;;1.98;;
61756;SDS011;57225;61.460;24.060;2022-09-09T07:01:48;3.08;;;2.20;;
61756;SDS011;57225;61.460;24.060;2022-09-09T07:04:32;5.43;;;1.90;;
61756;SDS011;57225;61.460;24.060;2022-09-09T07:07:17;3.13;;;1.80;;
61756;SDS011;57225;61.460;24.060;2022-09-09T07:10:02;3.83;;;1.83;;
61756;SDS011;57225;61.460;24.060;2022-09-09T07:12:51;4.80;;;1.60;;
61756;SDS011;57225;61.460;24.060;2022-09-09T07:15:36;5.13;;;1.73;;
61756;SDS011;57225;61.460;24.060;2022-09-09T07:18:21;5.13;;;1.63;;
61756;SDS011;57225;61.460;24.060;2022-09-09T07:21:05;1.83;;;1.33;;
61756;SDS011;57225;61.460;24.060;2022-09-09T07:23:50;7.30;;;2.03;;
61756;SDS011;57225;61.460;24.060;2022-09-09T07:26:35;1.35;;;1.15;;
61756;SDS011;57225;61.460;24.060;2022-09-09T07:29:20;3.67;;;1.38;;
61756;SDS011;57225;61.460;24.060;2022-09-09T07:32:04;4.53;;;1.45;;
61756;SDS011;57225;61.460;24.060;2022-09-09T07:34:49;2.20;;;1.40;;
61756;SDS011;57225;61.460;24.060;2022-09-09T07:37:36;3.28;;;1.25;;
61756;SDS011;57225;61.460;24.060;2022-09-09T07:40:21;6.80;;;1.42;;
61756;SDS011;57225;61.460;24.060;2022-09-09T07:43:05;2.92;;;0.85;;
61756;SDS011;57225;61.460;24.060;2022-09-09T07:45:56;1.88;;;1.15;;
61756;SDS011;57225;61.460;24.060;2022-09-09T07:48:45;3.75;;;1.15;;
61756;SDS011;57225;61.460;24.060;2022-09-09T07:51:34;3.78;;;1.02;;
61756;SDS011;57225;61.460;24.060;2022-09-09T07:54:21;2.50;;;0.80;;
61756;SDS011;57225;61.460;24.060;2022-09-09T07:57:07;1.75;;;0.88;;
61756;SDS011;57225;61.460;24.060;2022-09-09T07:59:51;1.35;;;0.90;;
61756;SDS011;57225;61.460;24.060;2022-09-09T08:02:36;8.23;;;1.10;;
61756;SDS011;57225;61.460;24.060;2022-09-09T08:05:20;2.97;;;1.17;;
61756;SDS011;57225;61.460;24.060;2022-09-09T08:08:06;3.95;;;0.90;;
61756;SDS011;57225;61.460;24.060;2022-09-09T08:10:52;2.88;;;0.95;;
61756;SDS011;57225;61.460;24.060;2022-09-09T08:13:36;1.67;;;0.90;;
61756;SDS011;57225;61.460;24.060;2022-09-09T08:16:25;1.58;;;1.00;;
61756;SDS011;57225;61.460;24.060;2022-09-09T08:19:11;1.60;;;0.80;;
61756;SDS011;57225;61.460;24.060;2022-09-09T08:21:55;2.28;;;0.88;;
61756;SDS011;57225;61.460;24.060;2022-09-09T08:24:40;1.25;;;0.70;;
61756;SDS011;57225;61.460;24.060;2022-09-09T08:27:24;1.40;;;0.90;;
61756;SDS011;57225;61.460;24.060;2022-09-09T08:30:09;4.35;;;1.00;;
61756;SDS011;57225;61.460;24.060;2022-09-09T08:32:54;1.50;;;0.98;;
61756;SDS011;57225;61.460;24.060;2022-09-09T08:35:38;0.90;;;0.80;;
61756;SDS011;57225;61.460;24.060;2022-09-09T08:38:23;1.65;;;0.70;;
61756;SDS011;57225;61.460;24.060;2022-09-09T08:41:22;6.10;;;0.70;;
61756;SDS011;57225;61.460;24.060;2022-09-09T08:53:23;2.65;;;0.40;;
61756;SDS011;57225;61.460;24.060;2022-09-09T08:56:15;1.65;;;0.65;;
61756;SDS011;57225;61.460;24.060;2022-09-09T08:59:02;0.50;;;0.43;;
61756;SDS011;57225;61.460;24.060;2022-09-09T09:10:57;2.85;;;0.70;;
61756;SDS011;57225;61.460;24.060;2022-09-09T09:13:52;0.65;;;0.43;;
61756;SDS011;57225;61.460;24.060;2022-09-09T09:16:46;1.30;;;0.55;;
61756;SDS011;57225;61.460;24.060;2022-09-09T09:19:39;2.10;;;0.68;;
61756;SDS011;57225;61.460;24.060;2022-09-09T09:25:31;2.83;;;0.55;;
61756;SDS011;57225;61.460;24.060;2022-09-09T09:28:20;4.22;;;0.47;;
61756;SDS011;57225;61.460;24.060;2022-09-09T09:31:09;5.60;;;0.65;;
61756;SDS011;57225;61.460;24.060;2022-09-09T09:33:55;0.50;;;0.50;;
61756;SDS011;57225;61.460;24.060;2022-09-09T09:39:37;1.35;;;0.50;;
61756;SDS011;57225;61.460;24.060;2022-09-09T09:42:23;2.17;;;0.43;;
61756;SDS011;57225;61.460;24.060;2022-09-09T09:45:20;1.50;;;0.60;;
61756;SDS011;57225;61.460;24.060;2022-09-09T09:48:15;1.10;;;0.60;;
61756;SDS011;57225;61.460;24.060;2022-09-09T09:51:01;1.30;;;0.80;;
61756;SDS011;57225;61.460;24.060;2022-09-09T09:53:51;0.95;;;0.50;;
61756;SDS011;57225;61.460;24.060;2022-09-09T09:56:37;0.40;;;0.40;;
61756;SDS011;57225;61.460;24.060;2022-09-09T10:05:08;2.47;;;0.80;;
61756;SDS011;57225;61.460;24.060;2022-09-09T10:08:09;1.38;;;0.68;;
61756;SDS011;57225;61.460;24.060;2022-09-09T10:22:58;0.60;;;0.50;;
61756;SDS011;57225;61.460;24.060;2022-09-09T10:32:33;1.10;;;0.40;;
61756;SDS011;57225;61.460;24.060;2022-09-09T10:35:33;1.58;;;0.50;;
61756;SDS011;57225;61.460;24.060;2022-09-09T10:38:34;1.05;;;0.50;;
61756;SDS011;57225;61.460;24.060;2022-09-09T10:41:45;1.55;;;0.60;;
61756;SDS011;57225;61.460;24.060;2022-09-09T10:45:02;6.53;;;0.57;;
61756;SDS011;57225;61.460;24.060;2022-09-09T10:57:44;1.15;;;0.70;;
61756;SDS011;57225;61.460;24.060;2022-09-09T11:00:25;1.98;;;0.60;;
61756;SDS011;57225;61.460;24.060;2022-09-09T11:03:25;1.80;;;0.60;;
61756;SDS011;57225;61.460;24.060;2022-09-09T11:06:14;0.40;;;0.40;;
61756;SDS011;57225;61.460;24.060;2022-09-09T11:09:03;1.42;;;0.63;;
61756;SDS011;57225;61.460;24.060;2022-09-09T11:11:55;1.60;;;0.60;;
61756;SDS011;57225;61.460;24.060;2022-09-09T11:14:54;2.33;;;0.50;;
61756;SDS011;57225;61.460;24.060;2022-09-09T11:17:46;1.23;;;0.45;;
61756;SDS011;57225;61.460;24.060;2022-09-09T11:20:34;0.80;;;0.57;;
61756;SDS011;57225;61.460;24.060;2022-09-09T11:23:22;1.25;;;0.68;;
61756;SDS011;57225;61.460;24.060;2022-09-09T11:26:13;2.70;;;0.57;;
61756;SDS011;57225;61.460;24.060;2022-09-09T11:38:19;1.90;;;0.47;;
61756;SDS011;57225;61.460;24.060;2022-09-09T11:41:09;2.58;;;0.50;;
61756;SDS011;57225;61.460;24.060;2022-09-09T11:43:54;0.82;;;0.32;;
61756;SDS011;57225;61.460;24.060;2022-09-09T11:46:39;0.68;;;0.50;;
61756;SDS011;57225;61.460;24.060;2022-09-09T11:52:35;0.50;;;0.40;;
61756;SDS011;57225;61.460;24.060;2022-09-09T12:00:56;1.45;;;0.43;;
61756;SDS011;57225;61.460;24.060;2022-09-09T12:06:48;1.10;;;0.60;;
61756;SDS011;57225;61.460;24.060;2022-09-09T12:12:24;0.60;;;0.40;;
61756;SDS011;57225;61.460;24.060;2022-09-09T12:15:19;2.67;;;0.60;;
61756;SDS011;57225;61.460;24.060;2022-09-09T12:18:07;1.85;;;0.60;;
61756;SDS011;57225;61.460;24.060;2022-09-09T12:24:17;0.60;;;0.43;;
61756;SDS011;57225;61.460;24.060;2022-09-09T12:30:16;2.05;;;0.60;;
61756;SDS011;57225;61.460;24.060;2022-09-09T12:33:02;1.27;;;0.50;;
61756;SDS011;57225;61.460;24.060;2022-09-09T12:35:55;0.73;;;0.40;;
61756;SDS011;57225;61.460;24.060;2022-09-09T12:38:41;0.75;;;0.47;;
61756;SDS011;57225;61.460;24.060;2022-09-09T12:41:27;2.40;;;0.70;;
61756;SDS011;57225;61.460;24.060;2022-09-09T12:44:15;0.40;;;0.30;;
61756;SDS011;57225;61.460;24.060;2022-09-09T12:47:00;0.75;;;0.50;;
61756;SDS011;57225;61.460;24.060;2022-09-09T12:49:46;0.80;;;0.40;;
61756;SDS011;57225;61.460;24.060;2022-09-09T12:52:34;1.08;;;0.30;;
61756;SDS011;57225;61.460;24.060;2022-09-09T12:55:22;0.75;;;0.60;;
61756;SDS011;57225;61.460;24.060;2022-09-09T12:58:11;0.90;;;0.32;;
61756;SDS011;57225;61.460;24.060;2022-09-09T13:01:01;1.80;;;0.50;;
61756;SDS011;57225;61.460;24.060;2022-09-09T13:03:51;0.65;;;0.47;;
61756;SDS011;57225;61.460;24.060;2022-09-09T13:06:36;0.60;;;0.38;;
61756;SDS011;57225;61.460;24.060;2022-09-09T13:09:21;3.63;;;0.68;;
61756;SDS011;57225;61.460;24.060;2022-09-09T13:12:06;1.48;;;0.43;;
61756;SDS011;57225;61.460;24.060;2022-09-09T13:14:57;0.80;;;0.70;;
61756;SDS011;57225;61.460;24.060;2022-09-09T13:17:41;0.40;;;0.40;;
61756;SDS011;57225;61.460;24.060;2022-09-09T13:20:26;1.45;;;0.60;;
61756;SDS011;57225;61.460;24.060;2022-09-09T13:23:11;3.85;;;0.70;;
61756;SDS011;57225;61.460;24.060;2022-09-09T13:25:57;1.00;;;0.40;;
61756;SDS011;57225;61.460;24.060;2022-09-09T13:28:43;2.25;;;0.50;;
61756;SDS011;57225;61.460;24.060;2022-09-09T13:31:30;0.47;;;0.35;;
61756;SDS011;57225;61.460;24.060;2022-09-09T13:34:27;1.40;;;0.38;;
61756;SDS011;57225;61.460;24.060;2022-09-09T13:37:23;1.70;;;0.65;;
61756;SDS011;57225;61.460;24.060;2022-09-09T13:40:18;1.73;;;0.63;;
61756;SDS011;57225;61.460;24.060;2022-09-09T13:43:14;3.17;;;0.60;;
61756;SDS011;57225;61.460;24.060;2022-09-09T13:46:21;4.93;;;0.47;;
61756;SDS011;57225;61.460;24.060;2022-09-09T13:52:05;1.88;;;0.60;;
61756;SDS011;57225;61.460;24.060;2022-09-09T13:54:53;0.88;;;0.60;;
61756;SDS011;57225;61.460;24.060;2022-09-09T13:57:38;1.13;;;0.55;;
61756;SDS011;57225;61.460;24.060;2022-09-09T14:00:22;0.75;;;0.57;;
61756;SDS011;57225;61.460;24.060;2022-09-09T14:03:10;2.17;;;0.60;;
61756;SDS011;57225;61.460;24.060;2022-09-09T14:05:55;2.83;;;0.60;;
61756;SDS011;57225;61.460;24.060;2022-09-09T14:08:39;0.93;;;0.57;;
61756;SDS011;57225;61.460;24.060;2022-09-09T14:11:24;3.55;;;0.50;;
61756;SDS011;57225;61.460;24.060;2022-09-09T14:14:08;3.53;;;0.70;;
61756;SDS011;57225;61.460;24.060;2022-09-09T14:16:53;0.85;;;0.70;;
61756;SDS011;57225;61.460;24.060;2022-09-09T14:19:38;1.67;;;0.57;;
61756;SDS011;57225;61.460;24.060;2022-09-09T14:22:23;0.57;;;0.40;;
61756;SDS011;57225;61.460;24.060;2022-09-09T14:25:12;0.65;;;0.40;;
61756;SDS011;57225;61.460;24.060;2022-09-09T14:27:59;1.48;;;0.60;;
61756;SDS011;57225;61.460;24.060;2022-09-09T14:30:44;2.38;;;0.57;;
61756;SDS011;57225;61.460;24.060;2022-09-09T14:33:28;2.00;;;0.60;;
61756;SDS011;57225;61.460;24.060;2022-09-09T14:36:13;1.13;;;0.50;;
61756;SDS011;57225;61.460;24.060;2022-09-09T14:38:58;0.57;;;0.50;;
61756;SDS011;57225;61.460;24.060;2022-09-09T14:41:43;3.97;;;0.55;;
61756;SDS011;57225;61.460;24.060;2022-09-09T14:44:27;3.72;;;0.70;;
61756;SDS011;57225;61.460;24.060;2022-09-09T14:47:12;1.52;;;0.80;;
61756;SDS011;57225;61.460;24.060;2022-09-09T14:49:57;0.57;;;0.40;;
61756;SDS011;57225;61.460;24.060;2022-09-09T14:52:41;1.38;;;0.80;;
61756;SDS011;57225;61.460;24.060;2022-09-09T14:55:28;1.42;;;0.60;;
61756;SDS011;57225;61.460;24.060;2022-09-09T14:58:13;4.50;;;0.50;;
61756;SDS011;57225;61.460;24.060;2022-09-09T15:04:12;1.15;;;0.47;;
61756;SDS011;57225;61.460;24.060;2022-09-09T15:07:00;2.00;;;0.57;;
61756;SDS011;57225;61.460;24.060;2022-09-09T15:09:45;1.67;;;0.50;;
61756;SDS011;57225;61.460;24.060;2022-09-09T15:12:31;1.25;;;0.50;;
61756;SDS011;57225;61.460;24.060;2022-09-09T15:15:17;0.82;;;0.50;;
61756;SDS011;57225;61.460;24.060;2022-09-09T15:18:01;3.17;;;0.60;;
61756;SDS011;57225;61.460;24.060;2022-09-09T15:20:46;1.50;;;0.52;;
61756;SDS011;57225;61.460;24.060;2022-09-09T15:23:31;0.88;;;0.60;;
61756;SDS011;57225;61.460;24.060;2022-09-09T15:26:17;1.42;;;0.50;;
61756;SDS011;57225;61.460;24.060;2022-09-09T15:29:02;3.35;;;0.70;;
61756;SDS011;57225;61.460;24.060;2022-09-09T15:31:47;3.97;;;1.90;;
61756;SDS011;57225;61.460;24.060;2022-09-09T15:34:31;2.42;;;1.30;;
61756;SDS011;57225;61.460;24.060;2022-09-09T15:37:16;1.30;;;0.82;;
61756;SDS011;57225;61.460;24.060;2022-09-09T15:40:00;0.98;;;0.60;;
61756;SDS011;57225;61.460;24.060;2022-09-09T15:42:45;1.10;;;0.45;;
61756;SDS011;57225;61.460;24.060;2022-09-09T15:45:29;1.52;;;0.60;;
61756;SDS011;57225;61.460;24.060;2022-09-09T15:48:15;1.80;;;0.60;;
61756;SDS011;57225;61.460;24.060;2022-09-09T15:51:02;5.65;;;2.50;;
61756;SDS011;57225;61.460;24.060;2022-09-09T15:53:47;18.40;;;8.52;;
61756;SDS011;57225;61.460;24.060;2022-09-09T15:56:32;60.92;;;25.98;;
61756;SDS011;57225;61.460;24.060;2022-09-09T15:59:16;76.40;;;31.50;;
61756;SDS011;57225;61.460;24.060;2022-09-09T16:02:02;36.85;;;16.00;;
61756;SDS011;57225;61.460;24.060;2022-09-09T16:04:46;17.15;;;8.77;;
61756;SDS011;57225;61.460;24.060;2022-09-09T16:07:31;11.20;;;4.95;;
61756;SDS011;57225;61.460;24.060;2022-09-09T16:10:15;7.53;;;3.65;;
61756;SDS011;57225;61.460;24.060;2022-09-09T16:13:00;8.45;;;3.70;;
61756;SDS011;57225;61.460;24.060;2022-09-09T16:15:44;6.10;;;2.65;;
61756;SDS011;57225;61.460;24.060;2022-09-09T16:18:33;3.72;;;2.10;;
61756;SDS011;57225;61.460;24.060;2022-09-09T16:21:29;5.28;;;2.20;;
61756;SDS011;57225;61.460;24.060;2022-09-09T16:24:16;9.20;;;3.20;;
61756;SDS011;57225;61.460;24.060;2022-09-09T16:27:02;4.07;;;2.00;;
61756;SDS011;57225;61.460;24.060;2022-09-09T16:29:46;4.75;;;1.52;;
61756;SDS011;57225;61.460;24.060;2022-09-09T16:32:31;2.88;;;1.30;;
61756;SDS011;57225;61.460;24.060;2022-09-09T16:35:15;4.22;;;1.20;;
61756;SDS011;57225;61.460;24.060;2022-09-09T16:38:00;3.25;;;0.93;;
61756;SDS011;57225;61.460;24.060;2022-09-09T16:40:46;6.50;;;1.25;;
61756;SDS011;57225;61.460;24.060;2022-09-09T16:43:32;2.83;;;1.38;;
61756;SDS011;57225;61.460;24.060;2022-09-09T16:46:17;5.57;;;1.45;;
61756;SDS011;57225;61.460;24.060;2022-09-09T16:49:03;2.25;;;1.42;;
61756;SDS011;57225;61.460;24.060;2022-09-09T16:51:49;4.63;;;1.55;;
61756;SDS011;57225;61.460;24.060;2022-09-09T16:54:36;3.50;;;1.70;;
61756;SDS011;57225;61.460;24.060;2022-09-09T16:57:21;2.92;;;1.60;;
61756;SDS011;57225;61.460;24.060;2022-09-09T17:00:05;2.90;;;1.40;;
61756;SDS011;57225;61.460;24.060;2022-09-09T17:02:50;2.28;;;1.30;;
61756;SDS011;57225;61.460;24.060;2022-09-09T17:05:39;2.10;;;1.50;;
61756;SDS011;57225;61.460;24.060;2022-09-09T17:08:25;4.43;;;2.33;;
61756;SDS011;57225;61.460;24.060;2022-09-09T17:11:16;2.92;;;1.88;;
61756;SDS011;57225;61.460;24.060;2022-09-09T17:14:02;3.53;;;1.67;;
61756;SDS011;57225;61.460;24.060;2022-09-09T17:16:47;8.55;;;2.00;;
61756;SDS011;57225;61.460;24.060;2022-09-09T17:19:32;4.50;;;1.92;;
61756;SDS011;57225;61.460;24.060;2022-09-09T17:22:16;1.95;;;1.40;;
61756;SDS011;57225;61.460;24.060;2022-09-09T17:25:00;5.38;;;1.70;;
61756;SDS011;57225;61.460;24.060;2022-09-09T17:27:45;5.03;;;2.80;;
61756;SDS011;57225;61.460;24.060;2022-09-09T17:30:30;7.78;;;2.50;;
61756;SDS011;57225;61.460;24.060;2022-09-09T17:33:18;3.38;;;2.00;;
61756;SDS011;57225;61.460;24.060;2022-09-09T17:36:14;6.03;;;2.17;;
61756;SDS011;57225;61.460;24.060;2022-09-09T17:39:00;4.72;;;2.40;;
61756;SDS011;57225;61.460;24.060;2022-09-09T17:41:45;6.05;;;2.20;;
61756;SDS011;57225;61.460;24.060;2022-09-09T17:44:29;2.75;;;1.83;;
61756;SDS011;57225;61.460;24.060;2022-09-09T17:47:16;3.90;;;1.77;;
61756;SDS011;57225;61.460;24.060;2022-09-09T17:50:00;3.08;;;1.55;;
61756;SDS011;57225;61.460;24.060;2022-09-09T17:52:45;3.15;;;1.10;;
61756;SDS011;57225;61.460;24.060;2022-09-09T17:55:29;5.35;;;2.00;;
61756;SDS011;57225;61.460;24.060;2022-09-09T17:58:13;7.93;;;2.25;;
61756;SDS011;57225;61.460;24.060;2022-09-09T18:01:10;7.15;;;2.40;;
61756;SDS011;57225;61.460;24.060;2022-09-09T18:03:58;8.02;;;2.38;;
61756;SDS011;57225;61.460;24.060;2022-09-09T18:06:48;7.05;;;2.53;;
61756;SDS011;57225;61.460;24.060;2022-09-09T18:09:34;5.88;;;3.05;;
61756;SDS011;57225;61.460;24.060;2022-09-09T18:12:18;5.60;;;2.63;;
61756;SDS011;57225;61.460;24.060;2022-09-09T18:15:03;5.43;;;3.03;;
61756;SDS011;57225;61.460;24.060;2022-09-09T18:17:47;6.07;;;2.60;;
61756;SDS011;57225;61.460;24.060;2022-09-09T18:20:32;8.55;;;2.88;;
61756;SDS011;57225;61.460;24.060;2022-09-09T18:23:16;7.82;;;3.30;;
61756;SDS011;57225;61.460;24.060;2022-09-09T18:26:02;7.18;;;2.92;;
61756;SDS011;57225;61.460;24.060;2022-09-09T18:28:53;9.88;;;3.30;;
61756;SDS011;57225;61.460;24.060;2022-09-09T18:31:39;9.82;;;4.18;;
61756;SDS011;57225;61.460;24.060;2022-09-09T18:34:25;11.65;;;3.15;;
61756;SDS011;57225;61.460;24.060;2022-09-09T18:37:10;7.22;;;2.90;;
61756;SDS011;57225;61.460;24.060;2022-09-09T18:39:58;5.60;;;2.40;;
61756;SDS011;57225;61.460;24.060;2022-09-09T18:42:45;6.85;;;3.22;;
61756;SDS011;57225;61.460;24.060;2022-09-09T18:45:29;8.68;;;3.83;;
61756;SDS011;57225;61.460;24.060;2022-09-09T18:48:14;9.25;;;5.68;;
61756;SDS011;57225;61.460;24.060;2022-09-09T18:51:05;10.60;;;4.22;;
61756;SDS011;57225;61.460;24.060;2022-09-09T18:53:53;8.10;;;4.30;;